Bei Facebook empfehlenBei Twitter postenGoogle plusPinterest

Das Wetter im Erzgebirge am 27.05.2015

Wetter und Klima am 27.05.2015 Holzhau im Erzgebirge (630m ü.NN)
Letzte gemessene Temperatur und Uhrzeit der Messung23:45:00 Uhr5.60 °C
Temperatur (Maximum / Höchstwert) und Uhrzeit der Messung16:15:00 Uhr10.10 °C
Temperatur (Minimum / Tiefstwert) und Uhrzeit der Messung07:00:004.50 °C
Errechneter Absolutwert der Temperaturschwankungen zwischen Tmin und Tmax des Tages5.60 K
Errechnete Tagesmitteltemperatur7.17813 °C
Gesamt - Niederschlag des Tages (in flüssiger Form)0.51 Liter / m²
Luftdruck (Maximum / Höchstwert) und Zeitpunkt der Messung13:45:00 Uhr1018.70 hPa
Luftdruck (Minimum / Tiefstwert) und Zeitpunkt der Messung02:30:00 Uhr1016.40 hPa
Errechneter Absolutwert der Luftdruckschwankungen des Tages2.30 hPa
Höchste gemessene Windgeschwindigkeit und Uhrzeit der Messung12:00:00 Uhr15.12 km/h
Errechnete Windhäufigkeit in Relation zu den Messwerten des Tages17.70833 %
Niedrigste Windkühle (Windchill) und Zeitpunkt der Messung07:30:00 Uhr2.80 °C
Taupunkt (Maximum / Höchstwert) und Uhrzeit der Messung16:15:00 Uhr5.10 °C
Taupunkt (Minimum / Tiefstwert) und Uhrzeit der Messung06:45:002.70 °C
Anzahl der automatisch eingelesenen Messwerte 96

Detaillierte Wetter- und Klima- Messwerte für den 27.05.2015 in Holzhau im Erzgebirge (630m ü.NN)
ZeitTemperaturLuftdruckRel. LuftfeuchteWindWindrichtungWindchillTaupunktNiederschlag l/m²
23:45:005.60 °C1017.90 hPa85.00 %3.30 °C0.51
23:30:005.80 °C1018.00 hPa85.00 %3.50 °C0.51
23:15:005.80 °C1018.00 hPa85.00 %3.50 °C0.51
23:00:005.80 °C1018.00 hPa85.00 %3.50 °C0.51
22:45:005.80 °C1018.10 hPa84.00 %3.30 °C0.51
22:30:005.80 °C1018.00 hPa84.00 %3.30 °C0.51
22:15:005.80 °C1018.00 hPa84.00 %3.30 °C0.51
22:00:005.80 °C1018.20 hPa83.00 %3.10 °C0.51
21:45:005.90 °C1018.20 hPa83.00 %3.20 °C0.51
21:30:006.20 °C1018.20 hPa81.00 %3.20 °C0.51
21:15:006.70 °C1018.00 hPa82.00 %3.90 °C0.51
21:00:007.00 °C1017.90 hPa81.00 %4.00 °C0.51
20:45:007.30 °C1017.90 hPa81.00 %4.30 °C0.51
20:30:007.40 °C1017.90 hPa80.00 %4.20 °C0.51
20:15:007.50 °C1018.00 hPa79.00 %4.10 °C0.51
20:00:007.70 °C1018.10 hPa79.00 %4.30 °C0.51
19:45:007.80 °C1018.10 hPa80.00 %4.60 °C0.51
19:30:007.60 °C1018.10 hPa79.00 %4.20 °C0.51
19:15:007.50 °C1018.10 hPa79.00 %4.10 °C0.51
19:00:007.60 °C1018.40 hPa78.00 %4.00 °C0.51
18:45:007.90 °C1018.40 hPa77.00 %4.10 °C0.51
18:30:008.30 °C1018.30 hPa77.00 %4.50 °C0.51
18:15:008.30 °C1018.20 hPa76.00 %4.30 °C0.51
18:00:008.60 °C1018.30 hPa75.00 %4.40 °C0.51
17:45:009.00 °C1018.20 hPa74.00 %5.76 km/hNW8.40 °C4.60 °C0.51
17:30:009.00 °C1018.30 hPa76.00 %5.00 °C0.51
17:15:008.20 °C1018.30 hPa76.00 %4.20 °C0.51
17:00:008.40 °C1018.30 hPa74.00 %4.00 °C0.51
16:45:008.90 °C1018.20 hPa72.00 %4.10 °C0.51
16:30:009.60 °C1018.20 hPa71.00 %4.60 °C0.51
16:15:0010.10 °C1018.20 hPa71.00 %7.56 km/hWNW9.20 °C5.10 °C0.51
16:00:009.40 °C1018.20 hPa72.00 %5.76 km/hNW8.80 °C4.60 °C0.51
15:45:008.50 °C1018.30 hPa74.00 %4.10 °C0.51
15:30:008.00 °C1018.40 hPa74.00 %3.70 °C0.51
15:15:008.30 °C1018.50 hPa72.00 %3.60 °C0.51
15:00:008.80 °C1018.40 hPa70.00 %9.00 km/hW7.40 °C3.60 °C0.51
14:45:0010.10 °C1018.40 hPa70.00 %4.90 °C0.51
14:30:009.30 °C1018.50 hPa75.00 %3.96 km/hW9.30 °C5.10 °C0.51
14:15:008.10 °C1018.60 hPa74.00 %7.56 km/hW6.90 °C3.80 °C0.51
14:00:007.90 °C1018.60 hPa73.00 %4.68 km/hNW7.90 °C3.40 °C0.51
13:45:008.20 °C1018.70 hPa73.00 %3.70 °C0.51
13:30:008.30 °C1018.40 hPa72.00 %3.60 °C0.51
13:15:008.70 °C1018.30 hPa70.00 %3.50 °C0.51
13:00:008.60 °C1018.20 hPa70.00 %3.40 °C0.51
12:45:009.40 °C1018.40 hPa68.00 %7.20 km/hW8.50 °C3.80 °C0.51
12:30:009.70 °C1018.50 hPa65.00 %4.68 km/hWNW9.70 °C3.40 °C0.51
12:15:0010.10 °C1018.30 hPa67.00 %7.56 km/hWNW9.20 °C4.30 °C0.51
12:00:009.60 °C1018.30 hPa67.00 %15.12 km/hNNW7.40 °C3.80 °C0.51
11:45:009.30 °C1018.30 hPa70.00 %4.10 °C0.51
11:30:008.60 °C1018.10 hPa73.00 %4.32 km/hWNW8.60 °C4.00 °C0.51
11:15:008.30 °C1018.40 hPa72.00 %3.60 °C0.51
11:00:008.60 °C1018.20 hPa72.00 %2.88 km/hWNW8.60 °C3.80 °C0.51
10:45:008.90 °C1018.30 hPa75.00 %4.70 °C0.51
10:30:008.20 °C1018.30 hPa76.00 %5.76 km/hNW7.50 °C4.20 °C0.51
10:15:008.50 °C1018.30 hPa76.00 %4.50 °C0.51
10:00:008.10 °C1018.40 hPa80.00 %4.90 °C0.51
09:45:007.80 °C1018.30 hPa81.00 %4.70 °C0.51
09:30:007.30 °C1018.30 hPa82.00 %4.40 °C0.51
09:15:006.80 °C1018.20 hPa85.00 %4.50 °C0.51
09:00:006.30 °C1018.30 hPa84.00 %3.80 °C0.51
08:45:006.20 °C1018.10 hPa84.00 %3.70 °C0.51
08:30:006.20 °C1018.20 hPa85.00 %3.90 °C0.51
08:15:006.20 °C1018.20 hPa86.00 %4.00 °C0.51
08:00:005.80 °C1018.40 hPa88.00 %4.00 °C0.51
07:45:005.50 °C1018.10 hPa89.00 %3.80 °C0.51
07:30:005.30 °C1018.10 hPa89.00 %11.16 km/hW2.80 °C3.60 °C0.51
07:15:005.00 °C1018.00 hPa89.00 %5.76 km/hNW3.80 °C3.30 °C0.51
07:00:004.50 °C1018.10 hPa89.00 %2.80 °C0.51
06:45:004.50 °C1018.00 hPa88.00 %2.70 °C0.51
06:30:004.70 °C1017.90 hPa88.00 %2.90 °C0.51
06:15:005.20 °C1017.90 hPa87.00 %3.20 °C 
06:00:005.30 °C1017.70 hPa87.00 %3.30 °C 
05:45:005.30 °C1017.60 hPa86.00 %3.20 °C 
05:30:005.50 °C1017.70 hPa86.00 %3.30 °C 
05:15:005.60 °C1017.50 hPa87.00 %3.60 °C 
05:00:005.80 °C1017.40 hPa87.00 %3.80 °C 
04:45:005.90 °C1017.20 hPa87.00 %3.90 °C 
04:30:005.90 °C1017.00 hPa87.00 %3.90 °C 
04:15:006.00 °C1017.10 hPa87.00 %4.00 °C 
04:00:006.10 °C1017.00 hPa87.00 %4.10 °C 
03:45:006.20 °C1016.80 hPa86.00 %4.00 °C 
03:30:006.30 °C1016.60 hPa86.00 %4.10 °C 
03:15:006.40 °C1016.60 hPa86.00 %4.20 °C 
03:00:006.40 °C1016.60 hPa85.00 %4.10 °C 
02:45:006.40 °C1016.50 hPa85.00 %4.10 °C 
02:30:006.40 °C1016.40 hPa84.00 %3.90 °C 
02:15:006.40 °C1016.60 hPa84.00 %5.40 km/hW5.50 °C3.90 °C 
02:00:006.40 °C1016.60 hPa84.00 %3.90 °C 
01:45:006.40 °C1016.70 hPa84.00 %3.90 °C 
01:30:006.40 °C1016.90 hPa84.00 %3.90 °C 
01:15:006.40 °C1016.70 hPa83.00 %3.70 °C 
01:00:006.30 °C1016.60 hPa83.00 %3.60 °C 
00:45:006.30 °C1016.60 hPa83.00 %3.60 °C 
00:30:006.40 °C1016.70 hPa83.00 %3.70 °C 
00:15:006.50 °C1016.80 hPa83.00 %3.80 °C 
00:00:006.60 °C1016.70 hPa83.00 %3.90 °C 

Permanenter Link zu dieser Seite: Wetter im Erzgebirge am 27.05.2015
Performance-Info: Die Erstellung der Seite / Statistik(en) / Tabelle(n) erforderte 5 Datenbankserver-Abfrage(n) und dauerte 123 Millisekunden. (Dieser Messwert ist von der Gesamt-Auslastung des Servers abhängig.)
Erzgebirge - Wetter | Erzgebirge - Wetter (Mobilgeräte) | Komplette Klimadatenbank